Elliot Lake, Canada
Current Conditions -  °F | °C
As of 6:00 PM on Sunday 21 Dec 2014 (Local Time) from CYZE Reporting Station
Overcast Overcast  
Wind Chill: -5°   Ceiling: 2700
Heat Index: -1°   Visibility: 9mi
Dew Point: -3°   Wind: 7mph
Humidity: 86%   Direction: 100°E
Pressure: 30.2"   Gusts: NA
Location:  46.38°N, 82.65°W
Report Text: CYZE 212300Z AUTO 10006KT 9SM OVC027 M01/M03 A3020 RMK ICG SLP239
Loading
Personal Weather Stations






























Interactive Weather Map New forecast layout! Learn more

10-Day Weather Forecast

Advertisements
Track Severe Weather on mobile